Página principal
METAR-TAF:

METAR-TAF

Aeroportos :

Gran Canária, Espanha

Aeroporto de Gran Canária

latitude: 27-56N, longitude: 015-23W, altura: 23 m

Observação actual do tempo

O boletim foi feito há 24 minutos, às 23:30 UTC
Vento 27 kt de norte
Temperatura 25°C
Humidade 65%
Pressão 1016 hPa
Visibilidade 10 km ou mais
Poucas nuvensa uma altura de 2000 ft

METAR: GCLP 182330Z 01027KT 9999 FEW020 25/18 Q1016 NOSIG

Hora: 00:54 (23:54 UTC)

Previsão

O boletim foi feito há 3 horas e 54 minutos, às 20:00 UTC
Previsão válida de 18 às 21 UTC a 19 às 21 UTC
Vento 20 kt de norte
Visibilidade 10 km ou mais
Poucas nuvensa uma altura de 2000 ft
Probabilidade 30% :
Temporariamente
de 18 às 21 UTC a 19 às 21 UTC
Vento 20 kt de norte com rajadas de 30 kt

TAF: GCLP 182000Z 1821/1921 01020KT 9999 FEW020 TX33/1913Z TN24/1905Z PROB30 TEMPO 1821/1921 01020G30KT

Observações e previsões do tempo de mais de 4000 aeroportos (mensagens METAR e TAF).

As estações disponíveis são os pontos amarelos e vermelhos sobre o mapa.

Mova o rato sobre o mapa para ver o nome da estação.

Depois clique no ponto para visualizar as observações e previsões meteorológicas.

Para alterar o mapa : clique nos botões verdes com uma cruz preta para aumentar o zoom; no botão verde com uma pitada de zoom; ou nas setas verdes para mapas adjacentes.


METAR-TAF: